sensor_id;sensor_type;location;lat;lon;timestamp;P1;durP1;ratioP1;P2;durP2;ratioP2
1537;SDS011;12022;52.266;10.522;2023-04-09T00:01:18;4.10;;;4.10;;
1537;SDS011;12022;52.266;10.522;2023-04-09T00:03:45;3.20;;;3.20;;
1537;SDS011;12022;52.266;10.522;2023-04-09T00:06:13;4.63;;;4.63;;
1537;SDS011;12022;52.266;10.522;2023-04-09T00:08:39;4.93;;;4.93;;
1537;SDS011;12022;52.266;10.522;2023-04-09T00:11:06;4.07;;;4.07;;
1537;SDS011;12022;52.266;10.522;2023-04-09T00:13:33;2.53;;;2.53;;
1537;SDS011;12022;52.266;10.522;2023-04-09T00:16:05;4.10;;;4.10;;
1537;SDS011;12022;52.266;10.522;2023-04-09T00:18:32;13.13;;;12.93;;
1537;SDS011;12022;52.266;10.522;2023-04-09T00:20:59;13.37;;;13.17;;
1537;SDS011;12022;52.266;10.522;2023-04-09T00:23:26;3.30;;;3.30;;
1537;SDS011;12022;52.266;10.522;2023-04-09T00:25:53;4.23;;;4.23;;
1537;SDS011;12022;52.266;10.522;2023-04-09T00:28:20;6.93;;;6.83;;
1537;SDS011;12022;52.266;10.522;2023-04-09T00:30:47;5.03;;;5.03;;
1537;SDS011;12022;52.266;10.522;2023-04-09T00:33:14;13.37;;;13.17;;
1537;SDS011;12022;52.266;10.522;2023-04-09T00:35:41;7.93;;;7.83;;
1537;SDS011;12022;52.266;10.522;2023-04-09T00:38:08;14.67;;;14.40;;
1537;SDS011;12022;52.266;10.522;2023-04-09T00:40:35;9.90;;;9.80;;
1537;SDS011;12022;52.266;10.522;2023-04-09T00:43:02;11.20;;;11.00;;
1537;SDS011;12022;52.266;10.522;2023-04-09T00:45:29;13.30;;;13.10;;
1537;SDS011;12022;52.266;10.522;2023-04-09T00:47:56;11.00;;;10.80;;
1537;SDS011;12022;52.266;10.522;2023-04-09T00:50:23;8.20;;;8.10;;
1537;SDS011;12022;52.266;10.522;2023-04-09T00:52:50;5.37;;;5.27;;
1537;SDS011;12022;52.266;10.522;2023-04-09T00:55:17;4.03;;;4.03;;
1537;SDS011;12022;52.266;10.522;2023-04-09T00:57:45;6.20;;;6.10;;
1537;SDS011;12022;52.266;10.522;2023-04-09T01:00:12;3.83;;;3.83;;
1537;SDS011;12022;52.266;10.522;2023-04-09T01:02:39;6.80;;;6.70;;
1537;SDS011;12022;52.266;10.522;2023-04-09T01:05:07;4.40;;;4.40;;
1537;SDS011;12022;52.266;10.522;2023-04-09T01:10:47;5.37;;;5.37;;
1537;SDS011;12022;52.266;10.522;2023-04-09T01:13:29;5.50;;;5.40;;
1537;SDS011;12022;52.266;10.522;2023-04-09T01:15:59;4.80;;;4.80;;
1537;SDS011;12022;52.266;10.522;2023-04-09T01:21:11;4.20;;;4.20;;
1537;SDS011;12022;52.266;10.522;2023-04-09T01:23:58;3.40;;;3.40;;
1537;SDS011;12022;52.266;10.522;2023-04-09T01:29:30;5.57;;;5.50;;
1537;SDS011;12022;52.266;10.522;2023-04-09T01:31:59;4.97;;;4.87;;
1537;SDS011;12022;52.266;10.522;2023-04-09T01:34:28;2.97;;;2.97;;
1537;SDS011;12022;52.266;10.522;2023-04-09T01:36:56;3.30;;;3.30;;
1537;SDS011;12022;52.266;10.522;2023-04-09T01:39:26;6.30;;;6.20;;
1537;SDS011;12022;52.266;10.522;2023-04-09T01:41:53;4.77;;;4.77;;
1537;SDS011;12022;52.266;10.522;2023-04-09T01:44:21;4.77;;;4.77;;
1537;SDS011;12022;52.266;10.522;2023-04-09T01:46:49;2.50;;;2.50;;
1537;SDS011;12022;52.266;10.522;2023-04-09T01:49:17;5.70;;;5.60;;
1537;SDS011;12022;52.266;10.522;2023-04-09T01:51:45;6.03;;;5.93;;
1537;SDS011;12022;52.266;10.522;2023-04-09T01:54:14;6.30;;;6.20;;
1537;SDS011;12022;52.266;10.522;2023-04-09T01:56:45;4.47;;;4.47;;
1537;SDS011;12022;52.266;10.522;2023-04-09T01:59:13;5.50;;;5.40;;
1537;SDS011;12022;52.266;10.522;2023-04-09T02:01:44;3.60;;;3.60;;
1537;SDS011;12022;52.266;10.522;2023-04-09T02:04:21;10.50;;;10.30;;
1537;SDS011;12022;52.266;10.522;2023-04-09T02:09:38;4.20;;;4.20;;
1537;SDS011;12022;52.266;10.522;2023-04-09T02:12:09;3.90;;;3.90;;
1537;SDS011;12022;52.266;10.522;2023-04-09T02:14:39;3.90;;;3.90;;
1537;SDS011;12022;52.266;10.522;2023-04-09T02:17:07;4.20;;;4.20;;
1537;SDS011;12022;52.266;10.522;2023-04-09T02:19:41;3.63;;;3.63;;
1537;SDS011;12022;52.266;10.522;2023-04-09T02:22:10;3.03;;;3.03;;
1537;SDS011;12022;52.266;10.522;2023-04-09T02:24:38;3.53;;;3.53;;
1537;SDS011;12022;52.266;10.522;2023-04-09T02:27:06;8.17;;;7.70;;
1537;SDS011;12022;52.266;10.522;2023-04-09T02:29:33;4.00;;;4.00;;
1537;SDS011;12022;52.266;10.522;2023-04-09T02:32:00;4.87;;;4.87;;
1537;SDS011;12022;52.266;10.522;2023-04-09T02:34:27;3.87;;;3.87;;
1537;SDS011;12022;52.266;10.522;2023-04-09T02:36:54;4.90;;;4.80;;
1537;SDS011;12022;52.266;10.522;2023-04-09T02:39:21;5.30;;;5.20;;
1537;SDS011;12022;52.266;10.522;2023-04-09T02:41:48;3.90;;;3.90;;
1537;SDS011;12022;52.266;10.522;2023-04-09T02:44:15;3.67;;;3.67;;
1537;SDS011;12022;52.266;10.522;2023-04-09T02:46:42;4.30;;;4.30;;
1537;SDS011;12022;52.266;10.522;2023-04-09T02:49:10;3.90;;;3.90;;
1537;SDS011;12022;52.266;10.522;2023-04-09T02:51:37;3.67;;;3.67;;
1537;SDS011;12022;52.266;10.522;2023-04-09T02:54:04;2.87;;;2.87;;
1537;SDS011;12022;52.266;10.522;2023-04-09T02:56:31;2.63;;;2.63;;
1537;SDS011;12022;52.266;10.522;2023-04-09T02:58:58;3.90;;;3.90;;
1537;SDS011;12022;52.266;10.522;2023-04-09T03:01:25;4.50;;;4.50;;
1537;SDS011;12022;52.266;10.522;2023-04-09T03:03:52;4.63;;;4.63;;
1537;SDS011;12022;52.266;10.522;2023-04-09T03:06:19;6.77;;;6.67;;
1537;SDS011;12022;52.266;10.522;2023-04-09T03:08:46;4.80;;;4.80;;
1537;SDS011;12022;52.266;10.522;2023-04-09T03:11:13;5.50;;;5.40;;
1537;SDS011;12022;52.266;10.522;2023-04-09T03:13:41;5.23;;;5.20;;
1537;SDS011;12022;52.266;10.522;2023-04-09T03:16:07;5.17;;;5.13;;
1537;SDS011;12022;52.266;10.522;2023-04-09T03:18:35;4.63;;;4.63;;
1537;SDS011;12022;52.266;10.522;2023-04-09T03:21:06;5.17;;;5.13;;
1537;SDS011;12022;52.266;10.522;2023-04-09T03:23:33;4.23;;;4.23;;
1537;SDS011;12022;52.266;10.522;2023-04-09T03:26:01;5.20;;;5.10;;
1537;SDS011;12022;52.266;10.522;2023-04-09T03:28:29;6.07;;;5.97;;
1537;SDS011;12022;52.266;10.522;2023-04-09T03:30:56;5.50;;;5.40;;
1537;SDS011;12022;52.266;10.522;2023-04-09T03:33:23;4.30;;;4.30;;
1537;SDS011;12022;52.266;10.522;2023-04-09T03:35:53;4.43;;;4.43;;
1537;SDS011;12022;52.266;10.522;2023-04-09T03:38:20;3.70;;;3.70;;
1537;SDS011;12022;52.266;10.522;2023-04-09T03:40:47;3.97;;;3.97;;
1537;SDS011;12022;52.266;10.522;2023-04-09T03:43:14;5.97;;;5.87;;
1537;SDS011;12022;52.266;10.522;2023-04-09T03:45:41;3.67;;;3.67;;
1537;SDS011;12022;52.266;10.522;2023-04-09T03:48:08;4.70;;;4.70;;
1537;SDS011;12022;52.266;10.522;2023-04-09T03:50:38;5.90;;;5.80;;
1537;SDS011;12022;52.266;10.522;2023-04-09T03:53:06;5.83;;;5.73;;
1537;SDS011;12022;52.266;10.522;2023-04-09T03:55:33;4.70;;;4.70;;
1537;SDS011;12022;52.266;10.522;2023-04-09T03:58:00;4.60;;;4.60;;
1537;SDS011;12022;52.266;10.522;2023-04-09T04:00:27;3.40;;;3.40;;
1537;SDS011;12022;52.266;10.522;2023-04-09T04:02:54;8.57;;;7.93;;
1537;SDS011;12022;52.266;10.522;2023-04-09T04:05:22;6.37;;;6.17;;
1537;SDS011;12022;52.266;10.522;2023-04-09T04:07:50;4.33;;;4.33;;
1537;SDS011;12022;52.266;10.522;2023-04-09T04:10:17;3.80;;;3.80;;
1537;SDS011;12022;52.266;10.522;2023-04-09T04:12:44;3.60;;;3.60;;
1537;SDS011;12022;52.266;10.522;2023-04-09T04:15:11;3.80;;;3.80;;
1537;SDS011;12022;52.266;10.522;2023-04-09T04:17:38;2.90;;;2.90;;
1537;SDS011;12022;52.266;10.522;2023-04-09T04:20:05;3.10;;;3.10;;
1537;SDS011;12022;52.266;10.522;2023-04-09T04:22:33;3.83;;;3.83;;
1537;SDS011;12022;52.266;10.522;2023-04-09T04:25:01;3.20;;;3.20;;
1537;SDS011;12022;52.266;10.522;2023-04-09T04:27:29;3.23;;;3.23;;
1537;SDS011;12022;52.266;10.522;2023-04-09T04:29:56;2.67;;;2.67;;
1537;SDS011;12022;52.266;10.522;2023-04-09T04:32:25;3.90;;;3.90;;
1537;SDS011;12022;52.266;10.522;2023-04-09T04:34:52;3.73;;;3.73;;
1537;SDS011;12022;52.266;10.522;2023-04-09T04:37:19;2.60;;;2.60;;
1537;SDS011;12022;52.266;10.522;2023-04-09T04:39:46;3.23;;;3.23;;
1537;SDS011;12022;52.266;10.522;2023-04-09T04:42:14;3.57;;;3.57;;
1537;SDS011;12022;52.266;10.522;2023-04-09T04:44:42;2.77;;;2.77;;
1537;SDS011;12022;52.266;10.522;2023-04-09T04:47:09;3.10;;;3.10;;
1537;SDS011;12022;52.266;10.522;2023-04-09T04:49:36;3.87;;;3.87;;
1537;SDS011;12022;52.266;10.522;2023-04-09T04:52:02;2.90;;;2.90;;
1537;SDS011;12022;52.266;10.522;2023-04-09T04:54:29;3.63;;;3.63;;
1537;SDS011;12022;52.266;10.522;2023-04-09T04:56:56;2.80;;;2.80;;
1537;SDS011;12022;52.266;10.522;2023-04-09T04:59:23;2.90;;;2.90;;
1537;SDS011;12022;52.266;10.522;2023-04-09T05:01:50;3.90;;;3.90;;
1537;SDS011;12022;52.266;10.522;2023-04-09T05:04:17;2.83;;;2.83;;
1537;SDS011;12022;52.266;10.522;2023-04-09T05:06:44;2.27;;;2.27;;
1537;SDS011;12022;52.266;10.522;2023-04-09T05:09:11;4.53;;;4.53;;
1537;SDS011;12022;52.266;10.522;2023-04-09T05:11:38;3.57;;;3.57;;
1537;SDS011;12022;52.266;10.522;2023-04-09T05:14:05;3.13;;;3.13;;
1537;SDS011;12022;52.266;10.522;2023-04-09T05:16:31;2.37;;;2.37;;
1537;SDS011;12022;52.266;10.522;2023-04-09T05:18:58;2.90;;;2.90;;
1537;SDS011;12022;52.266;10.522;2023-04-09T05:21:25;4.07;;;4.07;;
1537;SDS011;12022;52.266;10.522;2023-04-09T05:23:52;4.50;;;4.50;;
1537;SDS011;12022;52.266;10.522;2023-04-09T05:26:19;4.90;;;4.87;;
1537;SDS011;12022;52.266;10.522;2023-04-09T05:28:47;4.47;;;4.47;;
1537;SDS011;12022;52.266;10.522;2023-04-09T05:31:14;3.70;;;3.70;;
1537;SDS011;12022;52.266;10.522;2023-04-09T05:33:41;3.60;;;3.60;;
1537;SDS011;12022;52.266;10.522;2023-04-09T05:36:13;3.90;;;3.90;;
1537;SDS011;12022;52.266;10.522;2023-04-09T05:38:42;4.60;;;4.50;;
1537;SDS011;12022;52.266;10.522;2023-04-09T05:41:09;4.53;;;4.53;;
1537;SDS011;12022;52.266;10.522;2023-04-09T05:43:36;4.97;;;4.97;;
1537;SDS011;12022;52.266;10.522;2023-04-09T05:46:03;3.60;;;3.60;;
1537;SDS011;12022;52.266;10.522;2023-04-09T05:48:33;5.30;;;5.20;;
1537;SDS011;12022;52.266;10.522;2023-04-09T05:51:02;6.03;;;5.93;;
1537;SDS011;12022;52.266;10.522;2023-04-09T05:53:29;7.13;;;7.03;;
1537;SDS011;12022;52.266;10.522;2023-04-09T05:55:57;3.90;;;3.90;;
1537;SDS011;12022;52.266;10.522;2023-04-09T05:58:24;4.43;;;4.43;;
1537;SDS011;12022;52.266;10.522;2023-04-09T06:00:51;5.20;;;5.10;;
1537;SDS011;12022;52.266;10.522;2023-04-09T06:03:18;5.53;;;5.43;;
1537;SDS011;12022;52.266;10.522;2023-04-09T06:05:46;4.57;;;4.57;;
1537;SDS011;12022;52.266;10.522;2023-04-09T06:08:13;4.83;;;4.83;;
1537;SDS011;12022;52.266;10.522;2023-04-09T06:10:40;5.20;;;5.20;;
1537;SDS011;12022;52.266;10.522;2023-04-09T06:13:10;3.73;;;3.73;;
1537;SDS011;12022;52.266;10.522;2023-04-09T06:15:37;3.40;;;3.40;;
1537;SDS011;12022;52.266;10.522;2023-04-09T06:18:04;3.37;;;3.37;;
1537;SDS011;12022;52.266;10.522;2023-04-09T06:20:32;3.23;;;3.23;;
1537;SDS011;12022;52.266;10.522;2023-04-09T06:22:58;4.30;;;4.30;;
1537;SDS011;12022;52.266;10.522;2023-04-09T06:25:25;4.27;;;4.27;;
1537;SDS011;12022;52.266;10.522;2023-04-09T06:27:52;4.30;;;4.30;;
1537;SDS011;12022;52.266;10.522;2023-04-09T06:30:19;4.20;;;4.20;;
1537;SDS011;12022;52.266;10.522;2023-04-09T06:32:47;4.63;;;4.63;;
1537;SDS011;12022;52.266;10.522;2023-04-09T06:35:20;4.53;;;4.53;;
1537;SDS011;12022;52.266;10.522;2023-04-09T06:37:47;4.60;;;4.60;;
1537;SDS011;12022;52.266;10.522;2023-04-09T06:40:14;3.63;;;3.63;;
1537;SDS011;12022;52.266;10.522;2023-04-09T06:42:41;4.43;;;4.43;;
1537;SDS011;12022;52.266;10.522;2023-04-09T06:45:08;5.43;;;5.33;;
1537;SDS011;12022;52.266;10.522;2023-04-09T06:47:35;5.20;;;5.20;;
1537;SDS011;12022;52.266;10.522;2023-04-09T06:50:02;5.63;;;5.53;;
1537;SDS011;12022;52.266;10.522;2023-04-09T06:52:30;5.80;;;5.70;;
1537;SDS011;12022;52.266;10.522;2023-04-09T06:54:56;5.70;;;5.60;;
1537;SDS011;12022;52.266;10.522;2023-04-09T06:57:24;4.53;;;4.53;;
1537;SDS011;12022;52.266;10.522;2023-04-09T06:59:51;4.40;;;4.40;;
1537;SDS011;12022;52.266;10.522;2023-04-09T07:02:18;4.47;;;4.47;;
1537;SDS011;12022;52.266;10.522;2023-04-09T07:04:45;5.40;;;5.30;;
1537;SDS011;12022;52.266;10.522;2023-04-09T07:07:13;4.40;;;4.40;;
1537;SDS011;12022;52.266;10.522;2023-04-09T07:09:40;5.70;;;5.60;;
1537;SDS011;12022;52.266;10.522;2023-04-09T07:12:07;4.93;;;4.93;;
1537;SDS011;12022;52.266;10.522;2023-04-09T07:14:34;5.83;;;5.73;;
1537;SDS011;12022;52.266;10.522;2023-04-09T07:17:01;7.90;;;7.80;;
1537;SDS011;12022;52.266;10.522;2023-04-09T07:19:28;6.03;;;5.93;;
1537;SDS011;12022;52.266;10.522;2023-04-09T07:21:56;6.47;;;6.37;;
1537;SDS011;12022;52.266;10.522;2023-04-09T07:24:22;5.83;;;5.73;;
1537;SDS011;12022;52.266;10.522;2023-04-09T07:26:49;7.70;;;7.60;;
1537;SDS011;12022;52.266;10.522;2023-04-09T07:29:18;5.83;;;5.73;;
1537;SDS011;12022;52.266;10.522;2023-04-09T07:31:47;4.57;;;4.57;;
1537;SDS011;12022;52.266;10.522;2023-04-09T07:34:14;7.43;;;7.33;;
1537;SDS011;12022;52.266;10.522;2023-04-09T07:36:42;5.93;;;5.83;;
1537;SDS011;12022;52.266;10.522;2023-04-09T07:39:09;5.27;;;5.17;;
1537;SDS011;12022;52.266;10.522;2023-04-09T07:41:36;6.17;;;6.07;;
1537;SDS011;12022;52.266;10.522;2023-04-09T07:44:03;6.00;;;5.90;;
1537;SDS011;12022;52.266;10.522;2023-04-09T07:46:31;6.40;;;6.30;;
1537;SDS011;12022;52.266;10.522;2023-04-09T07:48:58;5.67;;;5.57;;
1537;SDS011;12022;52.266;10.522;2023-04-09T07:51:25;5.13;;;5.07;;
1537;SDS011;12022;52.266;10.522;2023-04-09T07:53:53;7.30;;;7.20;;
1537;SDS011;12022;52.266;10.522;2023-04-09T07:56:19;8.77;;;8.67;;
1537;SDS011;12022;52.266;10.522;2023-04-09T07:58:46;8.47;;;8.37;;
1537;SDS011;12022;52.266;10.522;2023-04-09T08:01:14;7.37;;;7.27;;
1537;SDS011;12022;52.266;10.522;2023-04-09T08:03:42;7.40;;;7.30;;
1537;SDS011;12022;52.266;10.522;2023-04-09T08:06:09;6.73;;;6.63;;
1537;SDS011;12022;52.266;10.522;2023-04-09T08:08:36;4.50;;;4.50;;
1537;SDS011;12022;52.266;10.522;2023-04-09T08:11:03;5.10;;;5.10;;
1537;SDS011;12022;52.266;10.522;2023-04-09T08:13:31;4.37;;;4.37;;
1537;SDS011;12022;52.266;10.522;2023-04-09T08:16:01;5.60;;;5.50;;
1537;SDS011;12022;52.266;10.522;2023-04-09T08:18:29;3.87;;;3.87;;
1537;SDS011;12022;52.266;10.522;2023-04-09T08:20:56;5.00;;;4.90;;
1537;SDS011;12022;52.266;10.522;2023-04-09T08:23:23;6.63;;;6.53;;
1537;SDS011;12022;52.266;10.522;2023-04-09T08:31:56;5.53;;;5.43;;
1537;SDS011;12022;52.266;10.522;2023-04-09T08:34:41;5.37;;;5.27;;
1537;SDS011;12022;52.266;10.522;2023-04-09T08:37:08;4.83;;;4.83;;
1537;SDS011;12022;52.266;10.522;2023-04-09T08:39:35;5.13;;;5.03;;
1537;SDS011;12022;52.266;10.522;2023-04-09T08:42:04;4.73;;;4.73;;
1537;SDS011;12022;52.266;10.522;2023-04-09T08:44:32;11.40;;;11.20;;
1537;SDS011;12022;52.266;10.522;2023-04-09T08:46:59;10.50;;;10.27;;
1537;SDS011;12022;52.266;10.522;2023-04-09T08:49:28;5.83;;;5.73;;
1537;SDS011;12022;52.266;10.522;2023-04-09T08:51:55;6.37;;;6.27;;
1537;SDS011;12022;52.266;10.522;2023-04-09T08:54:22;8.60;;;8.50;;
1537;SDS011;12022;52.266;10.522;2023-04-09T08:56:51;21.50;;;21.00;;
1537;SDS011;12022;52.266;10.522;2023-04-09T08:59:18;34.47;;;33.67;;
1537;SDS011;12022;52.266;10.522;2023-04-09T09:01:46;21.37;;;20.90;;
1537;SDS011;12022;52.266;10.522;2023-04-09T09:04:18;17.00;;;16.63;;
1537;SDS011;12022;52.266;10.522;2023-04-09T09:06:45;20.73;;;20.23;;
1537;SDS011;12022;52.266;10.522;2023-04-09T09:09:13;20.93;;;20.47;;
1537;SDS011;12022;52.266;10.522;2023-04-09T09:11:45;16.17;;;15.87;;
1537;SDS011;12022;52.266;10.522;2023-04-09T09:14:16;25.13;;;24.53;;
1537;SDS011;12022;52.266;10.522;2023-04-09T09:17:01;11.90;;;11.70;;
1537;SDS011;12022;52.266;10.522;2023-04-09T09:19:30;14.70;;;14.40;;
1537;SDS011;12022;52.266;10.522;2023-04-09T09:22:03;4.77;;;4.77;;
1537;SDS011;12022;52.266;10.522;2023-04-09T09:24:31;8.00;;;7.90;;
1537;SDS011;12022;52.266;10.522;2023-04-09T09:27:00;9.37;;;9.27;;
1537;SDS011;12022;52.266;10.522;2023-04-09T09:29:28;18.07;;;17.70;;
1537;SDS011;12022;52.266;10.522;2023-04-09T09:31:55;6.00;;;5.90;;
1537;SDS011;12022;52.266;10.522;2023-04-09T09:34:22;8.67;;;8.57;;
1537;SDS011;12022;52.266;10.522;2023-04-09T09:36:50;8.30;;;8.20;;
1537;SDS011;12022;52.266;10.522;2023-04-09T09:39:17;7.63;;;7.53;;
1537;SDS011;12022;52.266;10.522;2023-04-09T09:41:44;11.90;;;11.70;;
1537;SDS011;12022;52.266;10.522;2023-04-09T09:44:29;11.33;;;11.13;;
1537;SDS011;12022;52.266;10.522;2023-04-09T09:46:57;9.57;;;9.47;;
1537;SDS011;12022;52.266;10.522;2023-04-09T09:49:25;6.93;;;6.83;;
1537;SDS011;12022;52.266;10.522;2023-04-09T09:51:52;7.20;;;7.10;;
1537;SDS011;12022;52.266;10.522;2023-04-09T09:54:24;28.97;;;28.37;;
1537;SDS011;12022;52.266;10.522;2023-04-09T09:56:56;16.03;;;15.73;;
1537;SDS011;12022;52.266;10.522;2023-04-09T09:59:29;8.90;;;8.80;;
1537;SDS011;12022;52.266;10.522;2023-04-09T10:02:00;12.80;;;12.60;;
1537;SDS011;12022;52.266;10.522;2023-04-09T10:04:34;9.80;;;9.70;;
1537;SDS011;12022;52.266;10.522;2023-04-09T10:07:03;11.13;;;10.93;;
1537;SDS011;12022;52.266;10.522;2023-04-09T10:09:36;12.90;;;12.70;;
1537;SDS011;12022;52.266;10.522;2023-04-09T10:12:04;10.83;;;10.63;;
1537;SDS011;12022;52.266;10.522;2023-04-09T10:14:33;12.83;;;12.63;;
1537;SDS011;12022;52.266;10.522;2023-04-09T10:17:01;7.10;;;7.00;;
1537;SDS011;12022;52.266;10.522;2023-04-09T10:19:29;6.00;;;5.90;;
1537;SDS011;12022;52.266;10.522;2023-04-09T10:22:10;3.50;;;3.50;;
1537;SDS011;12022;52.266;10.522;2023-04-09T10:24:39;11.57;;;11.37;;
1537;SDS011;12022;52.266;10.522;2023-04-09T10:27:14;11.77;;;11.57;;
1537;SDS011;12022;52.266;10.522;2023-04-09T10:29:43;7.90;;;7.80;;
1537;SDS011;12022;52.266;10.522;2023-04-09T10:32:12;4.70;;;4.70;;
1537;SDS011;12022;52.266;10.522;2023-04-09T10:34:54;12.33;;;12.13;;
1537;SDS011;12022;52.266;10.522;2023-04-09T10:37:24;9.37;;;9.27;;
1537;SDS011;12022;52.266;10.522;2023-04-09T10:39:52;6.70;;;6.60;;
1537;SDS011;12022;52.266;10.522;2023-04-09T10:42:21;9.50;;;9.40;;
1537;SDS011;12022;52.266;10.522;2023-04-09T10:45:08;7.90;;;7.80;;
1537;SDS011;12022;52.266;10.522;2023-04-09T10:47:38;7.80;;;7.70;;
1537;SDS011;12022;52.266;10.522;2023-04-09T10:50:23;6.17;;;6.07;;
1537;SDS011;12022;52.266;10.522;2023-04-09T10:52:53;6.53;;;6.43;;
1537;SDS011;12022;52.266;10.522;2023-04-09T10:55:34;7.03;;;6.93;;
1537;SDS011;12022;52.266;10.522;2023-04-09T10:58:03;10.87;;;10.67;;
1537;SDS011;12022;52.266;10.522;2023-04-09T11:00:37;14.17;;;13.87;;
1537;SDS011;12022;52.266;10.522;2023-04-09T11:05:42;10.07;;;9.93;;
1537;SDS011;12022;52.266;10.522;2023-04-09T11:08:12;11.23;;;11.03;;
1537;SDS011;12022;52.266;10.522;2023-04-09T11:10:40;8.00;;;7.90;;
1537;SDS011;12022;52.266;10.522;2023-04-09T11:13:10;11.40;;;11.20;;
1537;SDS011;12022;52.266;10.522;2023-04-09T11:15:38;15.17;;;14.87;;
1537;SDS011;12022;52.266;10.522;2023-04-09T11:18:06;4.83;;;4.83;;
1537;SDS011;12022;52.266;10.522;2023-04-09T11:20:35;4.50;;;4.50;;
1537;SDS011;12022;52.266;10.522;2023-04-09T11:23:02;6.00;;;5.90;;
1537;SDS011;12022;52.266;10.522;2023-04-09T11:25:30;6.20;;;6.10;;
1537;SDS011;12022;52.266;10.522;2023-04-09T11:27:58;3.73;;;3.73;;
1537;SDS011;12022;52.266;10.522;2023-04-09T11:30:27;5.53;;;5.43;;
1537;SDS011;12022;52.266;10.522;2023-04-09T11:32:54;6.07;;;5.97;;
1537;SDS011;12022;52.266;10.522;2023-04-09T11:35:21;8.07;;;7.97;;
1537;SDS011;12022;52.266;10.522;2023-04-09T11:37:49;4.43;;;4.43;;
1537;SDS011;12022;52.266;10.522;2023-04-09T11:40:18;6.70;;;6.60;;
1537;SDS011;12022;52.266;10.522;2023-04-09T11:42:51;7.20;;;7.10;;
1537;SDS011;12022;52.266;10.522;2023-04-09T11:45:19;12.30;;;12.10;;
1537;SDS011;12022;52.266;10.522;2023-04-09T11:47:48;10.63;;;10.43;;
1537;SDS011;12022;52.266;10.522;2023-04-09T11:50:15;11.00;;;10.80;;
1537;SDS011;12022;52.266;10.522;2023-04-09T11:52:44;9.27;;;9.17;;
1537;SDS011;12022;52.266;10.522;2023-04-09T11:55:20;9.67;;;9.57;;
1537;SDS011;12022;52.266;10.522;2023-04-09T11:57:50;10.93;;;10.73;;
1537;SDS011;12022;52.266;10.522;2023-04-09T12:00:18;10.77;;;10.57;;
1537;SDS011;12022;52.266;10.522;2023-04-09T12:02:46;8.20;;;8.10;;
1537;SDS011;12022;52.266;10.522;2023-04-09T12:05:21;10.07;;;9.93;;
1537;SDS011;12022;52.266;10.522;2023-04-09T12:08:03;9.30;;;9.20;;
1537;SDS011;12022;52.266;10.522;2023-04-09T12:10:34;5.30;;;5.20;;
1537;SDS011;12022;52.266;10.522;2023-04-09T12:13:04;13.57;;;13.30;;
1537;SDS011;12022;52.266;10.522;2023-04-09T12:15:33;11.50;;;11.30;;
1537;SDS011;12022;52.266;10.522;2023-04-09T12:18:02;7.43;;;7.33;;
1537;SDS011;12022;52.266;10.522;2023-04-09T12:20:34;17.20;;;16.80;;
1537;SDS011;12022;52.266;10.522;2023-04-09T12:23:03;25.47;;;24.87;;
1537;SDS011;12022;52.266;10.522;2023-04-09T12:25:32;21.10;;;20.70;;
1537;SDS011;12022;52.266;10.522;2023-04-09T12:28:01;16.73;;;16.37;;
1537;SDS011;12022;52.266;10.522;2023-04-09T12:30:28;21.63;;;21.13;;
1537;SDS011;12022;52.266;10.522;2023-04-09T12:32:55;29.90;;;29.20;;
1537;SDS011;12022;52.266;10.522;2023-04-09T12:35:24;32.30;;;31.50;;
1537;SDS011;12022;52.266;10.522;2023-04-09T12:37:51;22.93;;;22.43;;
1537;SDS011;12022;52.266;10.522;2023-04-09T12:40:18;21.83;;;21.33;;
1537;SDS011;12022;52.266;10.522;2023-04-09T12:42:45;15.20;;;14.90;;
1537;SDS011;12022;52.266;10.522;2023-04-09T12:45:13;17.67;;;17.27;;
1537;SDS011;12022;52.266;10.522;2023-04-09T12:47:42;14.03;;;13.73;;
1537;SDS011;12022;52.266;10.522;2023-04-09T12:50:10;5.87;;;5.77;;
1537;SDS011;12022;52.266;10.522;2023-04-09T12:52:38;5.80;;;5.70;;
1537;SDS011;12022;52.266;10.522;2023-04-09T12:55:05;7.77;;;7.67;;
1537;SDS011;12022;52.266;10.522;2023-04-09T12:57:33;6.70;;;6.60;;
1537;SDS011;12022;52.266;10.522;2023-04-09T13:00:00;6.23;;;6.13;;
1537;SDS011;12022;52.266;10.522;2023-04-09T13:02:27;8.13;;;8.03;;
1537;SDS011;12022;52.266;10.522;2023-04-09T13:04:54;7.60;;;7.50;;
1537;SDS011;12022;52.266;10.522;2023-04-09T13:07:20;12.83;;;12.63;;
1537;SDS011;12022;52.266;10.522;2023-04-09T13:09:48;24.47;;;23.90;;
1537;SDS011;12022;52.266;10.522;2023-04-09T13:12:15;22.80;;;22.20;;
1537;SDS011;12022;52.266;10.522;2023-04-09T13:14:44;21.53;;;21.03;;
1537;SDS011;12022;52.266;10.522;2023-04-09T13:17:13;7.40;;;7.30;;
1537;SDS011;12022;52.266;10.522;2023-04-09T13:19:41;8.80;;;8.60;;
1537;SDS011;12022;52.266;10.522;2023-04-09T13:22:08;5.90;;;5.80;;
1537;SDS011;12022;52.266;10.522;2023-04-09T13:24:35;6.13;;;6.03;;
1537;SDS011;12022;52.266;10.522;2023-04-09T13:27:03;5.93;;;5.83;;
1537;SDS011;12022;52.266;10.522;2023-04-09T13:29:31;18.80;;;18.40;;
1537;SDS011;12022;52.266;10.522;2023-04-09T13:31:57;23.33;;;22.83;;
1537;SDS011;12022;52.266;10.522;2023-04-09T13:34:27;6.87;;;6.77;;
1537;SDS011;12022;52.266;10.522;2023-04-09T13:36:53;6.00;;;5.90;;
1537;SDS011;12022;52.266;10.522;2023-04-09T13:39:20;12.87;;;12.67;;
1537;SDS011;12022;52.266;10.522;2023-04-09T13:41:47;4.93;;;4.93;;
1537;SDS011;12022;52.266;10.522;2023-04-09T13:44:14;5.30;;;5.20;;
1537;SDS011;12022;52.266;10.522;2023-04-09T13:46:41;15.00;;;14.70;;
1537;SDS011;12022;52.266;10.522;2023-04-09T13:49:08;5.50;;;5.40;;
1537;SDS011;12022;52.266;10.522;2023-04-09T13:51:35;6.57;;;6.47;;
1537;SDS011;12022;52.266;10.522;2023-04-09T13:54:02;5.90;;;5.80;;
1537;SDS011;12022;52.266;10.522;2023-04-09T13:56:31;4.43;;;4.43;;
1537;SDS011;12022;52.266;10.522;2023-04-09T13:58:58;4.77;;;4.73;;
1537;SDS011;12022;52.266;10.522;2023-04-09T14:01:25;9.13;;;9.03;;
1537;SDS011;12022;52.266;10.522;2023-04-09T14:03:53;9.13;;;9.03;;
1537;SDS011;12022;52.266;10.522;2023-04-09T14:06:20;6.80;;;6.70;;
1537;SDS011;12022;52.266;10.522;2023-04-09T14:08:47;8.17;;;8.07;;
1537;SDS011;12022;52.266;10.522;2023-04-09T14:11:14;12.93;;;12.73;;
1537;SDS011;12022;52.266;10.522;2023-04-09T14:13:42;9.23;;;9.13;;
1537;SDS011;12022;52.266;10.522;2023-04-09T14:16:08;6.90;;;6.80;;
1537;SDS011;12022;52.266;10.522;2023-04-09T14:18:35;9.57;;;9.47;;
1537;SDS011;12022;52.266;10.522;2023-04-09T14:21:02;6.13;;;6.03;;
1537;SDS011;12022;52.266;10.522;2023-04-09T14:23:29;7.57;;;7.47;;
1537;SDS011;12022;52.266;10.522;2023-04-09T14:25:56;6.90;;;6.80;;
1537;SDS011;12022;52.266;10.522;2023-04-09T14:28:23;9.33;;;9.23;;
1537;SDS011;12022;52.266;10.522;2023-04-09T14:30:50;7.90;;;7.80;;
1537;SDS011;12022;52.266;10.522;2023-04-09T14:33:17;11.07;;;10.87;;
1537;SDS011;12022;52.266;10.522;2023-04-09T14:35:44;27.97;;;27.30;;
1537;SDS011;12022;52.266;10.522;2023-04-09T14:38:11;6.80;;;6.70;;
1537;SDS011;12022;52.266;10.522;2023-04-09T14:40:38;7.90;;;7.80;;
1537;SDS011;12022;52.266;10.522;2023-04-09T14:43:05;6.30;;;6.20;;
1537;SDS011;12022;52.266;10.522;2023-04-09T14:45:32;7.33;;;7.23;;
1537;SDS011;12022;52.266;10.522;2023-04-09T14:47:59;6.77;;;6.67;;
1537;SDS011;12022;52.266;10.522;2023-04-09T14:50:26;10.17;;;10.00;;
1537;SDS011;12022;52.266;10.522;2023-04-09T14:52:54;7.33;;;7.23;;
1537;SDS011;12022;52.266;10.522;2023-04-09T14:55:21;6.13;;;6.03;;
1537;SDS011;12022;52.266;10.522;2023-04-09T14:57:48;9.50;;;9.33;;
1537;SDS011;12022;52.266;10.522;2023-04-09T15:00:14;4.97;;;4.90;;
1537;SDS011;12022;52.266;10.522;2023-04-09T15:02:42;8.90;;;8.73;;
1537;SDS011;12022;52.266;10.522;2023-04-09T15:05:09;17.67;;;17.33;;
1537;SDS011;12022;52.266;10.522;2023-04-09T15:07:36;14.03;;;13.77;;
1537;SDS011;12022;52.266;10.522;2023-04-09T15:10:03;19.63;;;19.23;;